sensor_id;sensor_type;location;lat;lon;timestamp;P1;durP1;ratioP1;P2;durP2;ratioP2
65373;SDS011;52070;53.760;9.678;2023-11-21T00:01:31;28.48;;;13.50;;
65373;SDS011;52070;53.760;9.678;2023-11-21T00:04:00;31.98;;;14.70;;
65373;SDS011;52070;53.760;9.678;2023-11-21T00:06:28;23.00;;;13.95;;
65373;SDS011;52070;53.760;9.678;2023-11-21T00:08:56;26.58;;;14.55;;
65373;SDS011;52070;53.760;9.678;2023-11-21T00:11:23;27.75;;;15.10;;
65373;SDS011;52070;53.760;9.678;2023-11-21T00:13:50;28.27;;;14.88;;
65373;SDS011;52070;53.760;9.678;2023-11-21T00:16:18;31.63;;;15.40;;
65373;SDS011;52070;53.760;9.678;2023-11-21T00:18:44;22.83;;;14.10;;
65373;SDS011;52070;53.760;9.678;2023-11-21T00:21:14;26.63;;;14.90;;
65373;SDS011;52070;53.760;9.678;2023-11-21T00:23:41;27.10;;;15.05;;
65373;SDS011;52070;53.760;9.678;2023-11-21T00:26:08;25.20;;;14.38;;
65373;SDS011;52070;53.760;9.678;2023-11-21T00:28:35;26.08;;;14.60;;
65373;SDS011;52070;53.760;9.678;2023-11-21T00:31:02;21.00;;;12.82;;
65373;SDS011;52070;53.760;9.678;2023-11-21T00:33:29;26.42;;;14.02;;
65373;SDS011;52070;53.760;9.678;2023-11-21T00:35:56;24.73;;;14.52;;
65373;SDS011;52070;53.760;9.678;2023-11-21T00:38:25;27.58;;;14.30;;
65373;SDS011;52070;53.760;9.678;2023-11-21T00:40:52;22.63;;;13.55;;
65373;SDS011;52070;53.760;9.678;2023-11-21T00:43:21;24.00;;;13.73;;
65373;SDS011;52070;53.760;9.678;2023-11-21T00:45:49;22.85;;;13.32;;
65373;SDS011;52070;53.760;9.678;2023-11-21T00:48:16;24.45;;;13.63;;
65373;SDS011;52070;53.760;9.678;2023-11-21T00:50:45;22.65;;;13.57;;
65373;SDS011;52070;53.760;9.678;2023-11-21T00:53:12;21.15;;;12.95;;
65373;SDS011;52070;53.760;9.678;2023-11-21T00:55:40;22.33;;;11.82;;
65373;SDS011;52070;53.760;9.678;2023-11-21T00:58:07;17.77;;;9.20;;
65373;SDS011;52070;53.760;9.678;2023-11-21T01:00:34;17.70;;;10.45;;
65373;SDS011;52070;53.760;9.678;2023-11-21T01:03:04;15.95;;;10.13;;
65373;SDS011;52070;53.760;9.678;2023-11-21T01:05:33;21.80;;;10.43;;
65373;SDS011;52070;53.760;9.678;2023-11-21T01:08:00;17.55;;;9.65;;
65373;SDS011;52070;53.760;9.678;2023-11-21T01:10:27;11.93;;;7.75;;
65373;SDS011;52070;53.760;9.678;2023-11-21T01:12:56;12.20;;;7.30;;
65373;SDS011;52070;53.760;9.678;2023-11-21T01:15:23;13.27;;;6.95;;
65373;SDS011;52070;53.760;9.678;2023-11-21T01:17:51;10.90;;;6.50;;
65373;SDS011;52070;53.760;9.678;2023-11-21T01:20:18;11.35;;;6.97;;
65373;SDS011;52070;53.760;9.678;2023-11-21T01:22:45;12.63;;;6.43;;
65373;SDS011;52070;53.760;9.678;2023-11-21T01:25:14;12.43;;;6.20;;
65373;SDS011;52070;53.760;9.678;2023-11-21T01:27:41;10.05;;;6.05;;
65373;SDS011;52070;53.760;9.678;2023-11-21T01:30:10;12.20;;;5.68;;
65373;SDS011;52070;53.760;9.678;2023-11-21T01:32:38;12.20;;;5.95;;
65373;SDS011;52070;53.760;9.678;2023-11-21T01:35:05;11.27;;;6.68;;
65373;SDS011;52070;53.760;9.678;2023-11-21T01:37:32;10.00;;;5.70;;
65373;SDS011;52070;53.760;9.678;2023-11-21T01:39:59;9.45;;;6.10;;
65373;SDS011;52070;53.760;9.678;2023-11-21T01:42:26;12.60;;;5.90;;
65373;SDS011;52070;53.760;9.678;2023-11-21T01:44:54;10.73;;;6.57;;
65373;SDS011;52070;53.760;9.678;2023-11-21T01:47:23;11.10;;;6.80;;
65373;SDS011;52070;53.760;9.678;2023-11-21T01:49:51;13.15;;;6.55;;
65373;SDS011;52070;53.760;9.678;2023-11-21T01:52:18;10.68;;;6.50;;
65373;SDS011;52070;53.760;9.678;2023-11-21T01:54:46;12.80;;;6.20;;
65373;SDS011;52070;53.760;9.678;2023-11-21T01:57:13;10.48;;;5.93;;
65373;SDS011;52070;53.760;9.678;2023-11-21T01:59:41;8.30;;;5.68;;
65373;SDS011;52070;53.760;9.678;2023-11-21T02:02:09;8.98;;;5.88;;
65373;SDS011;52070;53.760;9.678;2023-11-21T02:04:37;10.38;;;5.57;;
65373;SDS011;52070;53.760;9.678;2023-11-21T02:07:04;9.52;;;5.43;;
65373;SDS011;52070;53.760;9.678;2023-11-21T02:09:31;11.25;;;5.60;;
65373;SDS011;52070;53.760;9.678;2023-11-21T02:11:59;8.90;;;5.80;;
65373;SDS011;52070;53.760;9.678;2023-11-21T02:14:27;12.40;;;6.20;;
65373;SDS011;52070;53.760;9.678;2023-11-21T02:16:54;9.93;;;5.65;;
65373;SDS011;52070;53.760;9.678;2023-11-21T02:19:22;10.20;;;5.90;;
65373;SDS011;52070;53.760;9.678;2023-11-21T02:21:52;8.43;;;5.10;;
65373;SDS011;52070;53.760;9.678;2023-11-21T02:24:21;11.13;;;5.15;;
65373;SDS011;52070;53.760;9.678;2023-11-21T02:26:49;8.50;;;5.38;;
65373;SDS011;52070;53.760;9.678;2023-11-21T02:29:17;12.10;;;5.80;;
65373;SDS011;52070;53.760;9.678;2023-11-21T02:31:47;7.05;;;4.97;;
65373;SDS011;52070;53.760;9.678;2023-11-21T02:34:15;11.00;;;5.47;;
65373;SDS011;52070;53.760;9.678;2023-11-21T02:36:42;8.05;;;5.13;;
65373;SDS011;52070;53.760;9.678;2023-11-21T02:39:09;9.48;;;5.10;;
65373;SDS011;52070;53.760;9.678;2023-11-21T02:44:06;7.87;;;5.57;;
65373;SDS011;52070;53.760;9.678;2023-11-21T02:46:33;7.90;;;5.18;;
65373;SDS011;52070;53.760;9.678;2023-11-21T02:49:00;9.30;;;5.25;;
65373;SDS011;52070;53.760;9.678;2023-11-21T02:51:28;9.07;;;5.68;;
65373;SDS011;52070;53.760;9.678;2023-11-21T02:53:55;12.77;;;5.68;;
65373;SDS011;52070;53.760;9.678;2023-11-21T02:56:24;11.20;;;6.63;;
65373;SDS011;52070;53.760;9.678;2023-11-21T02:58:55;10.98;;;6.00;;
65373;SDS011;52070;53.760;9.678;2023-11-21T03:01:22;12.60;;;6.30;;
65373;SDS011;52070;53.760;9.678;2023-11-21T03:03:50;11.95;;;7.40;;
65373;SDS011;52070;53.760;9.678;2023-11-21T03:06:17;10.50;;;6.55;;
65373;SDS011;52070;53.760;9.678;2023-11-21T03:08:45;14.35;;;7.22;;
65373;SDS011;52070;53.760;9.678;2023-11-21T03:11:12;13.45;;;6.85;;
65373;SDS011;52070;53.760;9.678;2023-11-21T03:13:39;10.75;;;6.95;;
65373;SDS011;52070;53.760;9.678;2023-11-21T03:16:09;12.77;;;7.00;;
65373;SDS011;52070;53.760;9.678;2023-11-21T03:18:37;11.77;;;7.10;;
65373;SDS011;52070;53.760;9.678;2023-11-21T03:21:04;14.43;;;7.45;;
65373;SDS011;52070;53.760;9.678;2023-11-21T03:23:34;12.43;;;6.77;;
65373;SDS011;52070;53.760;9.678;2023-11-21T03:26:01;23.08;;;7.68;;
65373;SDS011;52070;53.760;9.678;2023-11-21T03:28:28;10.68;;;6.55;;
65373;SDS011;52070;53.760;9.678;2023-11-21T03:30:55;13.23;;;6.97;;
65373;SDS011;52070;53.760;9.678;2023-11-21T03:33:24;9.45;;;6.68;;
65373;SDS011;52070;53.760;9.678;2023-11-21T03:35:51;12.68;;;6.72;;
65373;SDS011;52070;53.760;9.678;2023-11-21T03:38:19;13.30;;;7.43;;
65373;SDS011;52070;53.760;9.678;2023-11-21T03:40:46;10.70;;;6.47;;
65373;SDS011;52070;53.760;9.678;2023-11-21T03:43:13;15.20;;;7.82;;
65373;SDS011;52070;53.760;9.678;2023-11-21T03:45:40;14.07;;;6.50;;
65373;SDS011;52070;53.760;9.678;2023-11-21T03:48:08;11.40;;;7.07;;
65373;SDS011;52070;53.760;9.678;2023-11-21T03:50:36;12.15;;;6.55;;
65373;SDS011;52070;53.760;9.678;2023-11-21T03:53:03;11.40;;;6.75;;
65373;SDS011;52070;53.760;9.678;2023-11-21T03:55:30;12.15;;;6.93;;
65373;SDS011;52070;53.760;9.678;2023-11-21T03:57:57;12.48;;;7.35;;
65373;SDS011;52070;53.760;9.678;2023-11-21T04:00:24;13.13;;;7.47;;
65373;SDS011;52070;53.760;9.678;2023-11-21T04:02:52;11.85;;;7.28;;
65373;SDS011;52070;53.760;9.678;2023-11-21T04:05:19;12.02;;;7.53;;
65373;SDS011;52070;53.760;9.678;2023-11-21T04:10:17;12.63;;;7.40;;
65373;SDS011;52070;53.760;9.678;2023-11-21T04:12:44;14.98;;;7.43;;
65373;SDS011;52070;53.760;9.678;2023-11-21T04:15:12;12.82;;;6.82;;
65373;SDS011;52070;53.760;9.678;2023-11-21T04:17:40;18.83;;;7.93;;
65373;SDS011;52070;53.760;9.678;2023-11-21T04:20:07;16.48;;;7.78;;
65373;SDS011;52070;53.760;9.678;2023-11-21T04:22:36;14.15;;;7.15;;
65373;SDS011;52070;53.760;9.678;2023-11-21T04:25:09;11.57;;;6.68;;
65373;SDS011;52070;53.760;9.678;2023-11-21T04:27:36;13.93;;;7.00;;
65373;SDS011;52070;53.760;9.678;2023-11-21T04:30:04;10.65;;;6.97;;
65373;SDS011;52070;53.760;9.678;2023-11-21T04:32:32;13.10;;;7.88;;
65373;SDS011;52070;53.760;9.678;2023-11-21T04:34:59;12.10;;;6.85;;
65373;SDS011;52070;53.760;9.678;2023-11-21T04:37:26;14.10;;;7.53;;
65373;SDS011;52070;53.760;9.678;2023-11-21T04:39:53;16.70;;;6.97;;
65373;SDS011;52070;53.760;9.678;2023-11-21T04:42:22;16.08;;;7.90;;
65373;SDS011;52070;53.760;9.678;2023-11-21T04:44:49;17.70;;;8.18;;
65373;SDS011;52070;53.760;9.678;2023-11-21T04:47:18;13.60;;;8.02;;
65373;SDS011;52070;53.760;9.678;2023-11-21T04:49:45;12.40;;;7.80;;
65373;SDS011;52070;53.760;9.678;2023-11-21T04:52:13;17.08;;;8.18;;
65373;SDS011;52070;53.760;9.678;2023-11-21T04:54:40;12.63;;;7.43;;
65373;SDS011;52070;53.760;9.678;2023-11-21T04:57:08;12.52;;;7.05;;
65373;SDS011;52070;53.760;9.678;2023-11-21T04:59:36;9.75;;;6.63;;
65373;SDS011;52070;53.760;9.678;2023-11-21T05:02:03;14.48;;;7.78;;
65373;SDS011;52070;53.760;9.678;2023-11-21T05:04:30;14.18;;;8.23;;
65373;SDS011;52070;53.760;9.678;2023-11-21T05:06:58;14.77;;;6.82;;
65373;SDS011;52070;53.760;9.678;2023-11-21T05:09:26;12.63;;;7.30;;
65373;SDS011;52070;53.760;9.678;2023-11-21T05:11:54;11.57;;;7.07;;
65373;SDS011;52070;53.760;9.678;2023-11-21T05:14:21;13.25;;;7.05;;
65373;SDS011;52070;53.760;9.678;2023-11-21T05:16:49;20.88;;;8.45;;
65373;SDS011;52070;53.760;9.678;2023-11-21T05:19:17;15.25;;;7.65;;
65373;SDS011;52070;53.760;9.678;2023-11-21T05:21:44;17.88;;;6.70;;
65373;SDS011;52070;53.760;9.678;2023-11-21T05:24:11;16.00;;;8.10;;
65373;SDS011;52070;53.760;9.678;2023-11-21T05:26:38;16.63;;;7.82;;
65373;SDS011;52070;53.760;9.678;2023-11-21T05:29:05;14.98;;;8.27;;
65373;SDS011;52070;53.760;9.678;2023-11-21T05:31:34;16.65;;;7.88;;
65373;SDS011;52070;53.760;9.678;2023-11-21T05:34:02;15.68;;;8.00;;
65373;SDS011;52070;53.760;9.678;2023-11-21T05:36:30;13.18;;;8.25;;
65373;SDS011;52070;53.760;9.678;2023-11-21T05:38:57;12.80;;;8.05;;
65373;SDS011;52070;53.760;9.678;2023-11-21T05:41:24;17.33;;;8.48;;
65373;SDS011;52070;53.760;9.678;2023-11-21T05:43:51;13.20;;;8.18;;
65373;SDS011;52070;53.760;9.678;2023-11-21T05:46:19;14.52;;;8.65;;
65373;SDS011;52070;53.760;9.678;2023-11-21T05:48:47;15.02;;;8.88;;
65373;SDS011;52070;53.760;9.678;2023-11-21T05:51:15;15.07;;;9.00;;
65373;SDS011;52070;53.760;9.678;2023-11-21T05:53:43;18.20;;;9.48;;
65373;SDS011;52070;53.760;9.678;2023-11-21T05:56:10;19.02;;;9.60;;
65373;SDS011;52070;53.760;9.678;2023-11-21T05:58:37;18.73;;;9.85;;
65373;SDS011;52070;53.760;9.678;2023-11-21T06:01:05;13.63;;;6.80;;
65373;SDS011;52070;53.760;9.678;2023-11-21T06:03:33;16.48;;;7.65;;
65373;SDS011;52070;53.760;9.678;2023-11-21T06:06:00;18.27;;;7.40;;
65373;SDS011;52070;53.760;9.678;2023-11-21T06:08:28;11.65;;;6.88;;
65373;SDS011;52070;53.760;9.678;2023-11-21T06:10:55;16.02;;;7.35;;
65373;SDS011;52070;53.760;9.678;2023-11-21T06:13:22;18.10;;;7.07;;
65373;SDS011;52070;53.760;9.678;2023-11-21T06:15:50;12.07;;;6.70;;
65373;SDS011;52070;53.760;9.678;2023-11-21T06:18:17;13.05;;;7.00;;
65373;SDS011;52070;53.760;9.678;2023-11-21T06:20:45;15.57;;;7.07;;
65373;SDS011;52070;53.760;9.678;2023-11-21T06:23:12;12.70;;;6.65;;
65373;SDS011;52070;53.760;9.678;2023-11-21T06:25:40;17.92;;;6.82;;
65373;SDS011;52070;53.760;9.678;2023-11-21T06:28:07;12.38;;;6.00;;
65373;SDS011;52070;53.760;9.678;2023-11-21T06:30:35;11.20;;;6.72;;
65373;SDS011;52070;53.760;9.678;2023-11-21T06:33:01;14.05;;;6.55;;
65373;SDS011;52070;53.760;9.678;2023-11-21T06:35:29;14.02;;;6.72;;
65373;SDS011;52070;53.760;9.678;2023-11-21T06:37:59;12.00;;;6.10;;
65373;SDS011;52070;53.760;9.678;2023-11-21T06:40:26;12.82;;;6.55;;
65373;SDS011;52070;53.760;9.678;2023-11-21T06:42:54;13.93;;;6.97;;
65373;SDS011;52070;53.760;9.678;2023-11-21T06:45:22;15.05;;;6.88;;
65373;SDS011;52070;53.760;9.678;2023-11-21T06:47:49;12.90;;;7.30;;
65373;SDS011;52070;53.760;9.678;2023-11-21T06:50:16;13.95;;;7.10;;
65373;SDS011;52070;53.760;9.678;2023-11-21T06:52:43;11.80;;;6.78;;
65373;SDS011;52070;53.760;9.678;2023-11-21T06:55:11;15.38;;;6.90;;
65373;SDS011;52070;53.760;9.678;2023-11-21T06:57:38;11.77;;;6.80;;
65373;SDS011;52070;53.760;9.678;2023-11-21T07:00:07;10.13;;;6.13;;
65373;SDS011;52070;53.760;9.678;2023-11-21T07:02:35;14.88;;;6.82;;
65373;SDS011;52070;53.760;9.678;2023-11-21T07:05:02;11.32;;;6.15;;
65373;SDS011;52070;53.760;9.678;2023-11-21T07:07:30;13.23;;;7.00;;
65373;SDS011;52070;53.760;9.678;2023-11-21T07:09:57;10.45;;;6.03;;
65373;SDS011;52070;53.760;9.678;2023-11-21T07:12:28;10.77;;;6.03;;
65373;SDS011;52070;53.760;9.678;2023-11-21T07:14:56;12.15;;;5.78;;
65373;SDS011;52070;53.760;9.678;2023-11-21T07:17:25;11.20;;;5.68;;
65373;SDS011;52070;53.760;9.678;2023-11-21T07:19:52;9.38;;;5.75;;
65373;SDS011;52070;53.760;9.678;2023-11-21T07:22:20;16.65;;;5.63;;
65373;SDS011;52070;53.760;9.678;2023-11-21T07:24:48;9.95;;;5.43;;
65373;SDS011;52070;53.760;9.678;2023-11-21T07:27:16;8.50;;;5.10;;
65373;SDS011;52070;53.760;9.678;2023-11-21T07:29:43;15.15;;;5.50;;
65373;SDS011;52070;53.760;9.678;2023-11-21T07:32:10;9.30;;;5.10;;
65373;SDS011;52070;53.760;9.678;2023-11-21T07:34:40;6.53;;;4.70;;
65373;SDS011;52070;53.760;9.678;2023-11-21T07:37:08;7.97;;;4.55;;
65373;SDS011;52070;53.760;9.678;2023-11-21T07:39:35;10.07;;;4.50;;
65373;SDS011;52070;53.760;9.678;2023-11-21T07:42:02;8.75;;;4.72;;
65373;SDS011;52070;53.760;9.678;2023-11-21T07:44:30;8.02;;;4.82;;
65373;SDS011;52070;53.760;9.678;2023-11-21T07:46:57;6.93;;;4.68;;
65373;SDS011;52070;53.760;9.678;2023-11-21T07:49:24;12.18;;;5.03;;
65373;SDS011;52070;53.760;9.678;2023-11-21T07:51:53;8.95;;;4.85;;
65373;SDS011;52070;53.760;9.678;2023-11-21T07:54:20;9.23;;;4.88;;
65373;SDS011;52070;53.760;9.678;2023-11-21T07:56:47;9.10;;;5.25;;
65373;SDS011;52070;53.760;9.678;2023-11-21T07:59:14;6.78;;;4.90;;
65373;SDS011;52070;53.760;9.678;2023-11-21T08:01:42;7.30;;;4.32;;
65373;SDS011;52070;53.760;9.678;2023-11-21T08:04:11;8.85;;;4.47;;
65373;SDS011;52070;53.760;9.678;2023-11-21T08:06:38;11.38;;;4.45;;
65373;SDS011;52070;53.760;9.678;2023-11-21T08:09:08;8.02;;;4.57;;
65373;SDS011;52070;53.760;9.678;2023-11-21T08:11:37;13.23;;;4.50;;
65373;SDS011;52070;53.760;9.678;2023-11-21T08:14:04;7.28;;;4.28;;
65373;SDS011;52070;53.760;9.678;2023-11-21T08:16:32;6.18;;;4.40;;
65373;SDS011;52070;53.760;9.678;2023-11-21T08:18:59;12.50;;;4.65;;
65373;SDS011;52070;53.760;9.678;2023-11-21T08:21:26;13.02;;;4.80;;
65373;SDS011;52070;53.760;9.678;2023-11-21T08:23:54;8.15;;;4.82;;
65373;SDS011;52070;53.760;9.678;2023-11-21T08:26:23;11.55;;;4.47;;
65373;SDS011;52070;53.760;9.678;2023-11-21T08:28:50;11.63;;;4.63;;
65373;SDS011;52070;53.760;9.678;2023-11-21T08:31:23;5.97;;;4.05;;
65373;SDS011;52070;53.760;9.678;2023-11-21T08:33:50;7.43;;;4.50;;
65373;SDS011;52070;53.760;9.678;2023-11-21T08:36:18;11.95;;;4.45;;
65373;SDS011;52070;53.760;9.678;2023-11-21T08:38:46;10.45;;;4.38;;
65373;SDS011;52070;53.760;9.678;2023-11-21T08:41:14;9.73;;;4.95;;
65373;SDS011;52070;53.760;9.678;2023-11-21T08:43:42;9.40;;;4.80;;
65373;SDS011;52070;53.760;9.678;2023-11-21T08:46:10;5.88;;;3.67;;
65373;SDS011;52070;53.760;9.678;2023-11-21T08:48:37;4.78;;;3.63;;
65373;SDS011;52070;53.760;9.678;2023-11-21T08:51:04;9.60;;;3.97;;
65373;SDS011;52070;53.760;9.678;2023-11-21T08:53:32;6.25;;;3.47;;
65373;SDS011;52070;53.760;9.678;2023-11-21T08:55:59;6.95;;;3.63;;
65373;SDS011;52070;53.760;9.678;2023-11-21T08:58:26;7.43;;;3.20;;
65373;SDS011;52070;53.760;9.678;2023-11-21T09:00:54;8.65;;;3.60;;
65373;SDS011;52070;53.760;9.678;2023-11-21T09:03:21;8.65;;;3.47;;
65373;SDS011;52070;53.760;9.678;2023-11-21T09:05:48;6.05;;;3.33;;
65373;SDS011;52070;53.760;9.678;2023-11-21T09:08:15;5.93;;;3.67;;
65373;SDS011;52070;53.760;9.678;2023-11-21T09:10:42;5.60;;;3.50;;
65373;SDS011;52070;53.760;9.678;2023-11-21T09:13:12;6.80;;;3.80;;
65373;SDS011;52070;53.760;9.678;2023-11-21T09:15:42;8.00;;;3.50;;
65373;SDS011;52070;53.760;9.678;2023-11-21T09:18:13;6.13;;;3.80;;
65373;SDS011;52070;53.760;9.678;2023-11-21T09:20:40;4.57;;;2.80;;
65373;SDS011;52070;53.760;9.678;2023-11-21T09:23:09;5.07;;;2.90;;
65373;SDS011;52070;53.760;9.678;2023-11-21T09:25:36;3.65;;;2.63;;
65373;SDS011;52070;53.760;9.678;2023-11-21T09:28:04;4.40;;;2.88;;
65373;SDS011;52070;53.760;9.678;2023-11-21T09:30:33;3.75;;;3.10;;
65373;SDS011;52070;53.760;9.678;2023-11-21T09:33:00;5.47;;;2.92;;
65373;SDS011;52070;53.760;9.678;2023-11-21T09:35:29;6.10;;;3.10;;
65373;SDS011;52070;53.760;9.678;2023-11-21T09:37:56;6.78;;;2.90;;
65373;SDS011;52070;53.760;9.678;2023-11-21T09:40:24;6.75;;;2.88;;
65373;SDS011;52070;53.760;9.678;2023-11-21T09:42:54;4.60;;;2.50;;
65373;SDS011;52070;53.760;9.678;2023-11-21T09:45:24;5.77;;;2.60;;
65373;SDS011;52070;53.760;9.678;2023-11-21T09:47:52;5.78;;;2.92;;
65373;SDS011;52070;53.760;9.678;2023-11-21T09:50:19;4.70;;;2.72;;
65373;SDS011;52070;53.760;9.678;2023-11-21T09:52:52;5.60;;;3.20;;
65373;SDS011;52070;53.760;9.678;2023-11-21T09:55:22;4.63;;;2.92;;
65373;SDS011;52070;53.760;9.678;2023-11-21T09:57:54;10.77;;;3.35;;
65373;SDS011;52070;53.760;9.678;2023-11-21T10:00:23;6.00;;;3.17;;
65373;SDS011;52070;53.760;9.678;2023-11-21T10:02:50;4.30;;;2.92;;
65373;SDS011;52070;53.760;9.678;2023-11-21T10:05:18;5.43;;;3.17;;
65373;SDS011;52070;53.760;9.678;2023-11-21T10:07:49;4.05;;;3.13;;
65373;SDS011;52070;53.760;9.678;2023-11-21T10:10:18;7.60;;;3.67;;
65373;SDS011;52070;53.760;9.678;2023-11-21T10:12:48;4.80;;;3.22;;
65373;SDS011;52070;53.760;9.678;2023-11-21T10:15:20;6.47;;;3.30;;
65373;SDS011;52070;53.760;9.678;2023-11-21T10:17:48;8.77;;;3.50;;
65373;SDS011;52070;53.760;9.678;2023-11-21T10:20:16;4.97;;;2.95;;
65373;SDS011;52070;53.760;9.678;2023-11-21T10:22:45;7.00;;;3.60;;
65373;SDS011;52070;53.760;9.678;2023-11-21T10:25:13;10.35;;;3.72;;
65373;SDS011;52070;53.760;9.678;2023-11-21T10:27:40;7.53;;;3.95;;
65373;SDS011;52070;53.760;9.678;2023-11-21T10:30:09;6.28;;;3.72;;
65373;SDS011;52070;53.760;9.678;2023-11-21T10:32:37;5.65;;;3.20;;
65373;SDS011;52070;53.760;9.678;2023-11-21T10:35:06;7.72;;;3.67;;
65373;SDS011;52070;53.760;9.678;2023-11-21T10:37:35;6.60;;;3.83;;
65373;SDS011;52070;53.760;9.678;2023-11-21T10:40:05;4.72;;;2.95;;
65373;SDS011;52070;53.760;9.678;2023-11-21T10:42:34;5.82;;;3.30;;
65373;SDS011;52070;53.760;9.678;2023-11-21T10:45:03;4.43;;;2.65;;
65373;SDS011;52070;53.760;9.678;2023-11-21T10:47:35;9.60;;;3.45;;
65373;SDS011;52070;53.760;9.678;2023-11-21T10:50:03;4.28;;;3.05;;
65373;SDS011;52070;53.760;9.678;2023-11-21T10:52:31;7.57;;;3.30;;
65373;SDS011;52070;53.760;9.678;2023-11-21T10:54:58;5.47;;;2.85;;
65373;SDS011;52070;53.760;9.678;2023-11-21T10:57:29;6.60;;;2.85;;
65373;SDS011;52070;53.760;9.678;2023-11-21T10:59:58;8.27;;;2.75;;
65373;SDS011;52070;53.760;9.678;2023-11-21T11:02:25;4.40;;;2.88;;
65373;SDS011;52070;53.760;9.678;2023-11-21T11:04:53;7.28;;;2.70;;
65373;SDS011;52070;53.760;9.678;2023-11-21T11:07:22;7.20;;;2.90;;
65373;SDS011;52070;53.760;9.678;2023-11-21T11:09:53;3.67;;;2.42;;
65373;SDS011;52070;53.760;9.678;2023-11-21T11:12:21;4.78;;;2.65;;
65373;SDS011;52070;53.760;9.678;2023-11-21T11:14:48;8.88;;;2.70;;
65373;SDS011;52070;53.760;9.678;2023-11-21T11:17:17;7.07;;;2.47;;
65373;SDS011;52070;53.760;9.678;2023-11-21T11:19:46;3.53;;;2.38;;
65373;SDS011;52070;53.760;9.678;2023-11-21T11:22:18;4.85;;;2.65;;
65373;SDS011;52070;53.760;9.678;2023-11-21T11:25:00;5.70;;;2.60;;
65373;SDS011;52070;53.760;9.678;2023-11-21T11:27:40;5.00;;;2.38;;
65373;SDS011;52070;53.760;9.678;2023-11-21T11:30:16;3.60;;;2.45;;
65373;SDS011;52070;53.760;9.678;2023-11-21T11:33:03;5.72;;;2.33;;
65373;SDS011;52070;53.760;9.678;2023-11-21T11:35:38;3.97;;;2.50;;
65373;SDS011;52070;53.760;9.678;2023-11-21T11:38:12;7.45;;;2.55;;
65373;SDS011;52070;53.760;9.678;2023-11-21T11:40:41;4.43;;;2.55;;
65373;SDS011;52070;53.760;9.678;2023-11-21T11:45:39;2.70;;;1.98;;
65373;SDS011;52070;53.760;9.678;2023-11-21T11:48:10;5.95;;;2.47;;
65373;SDS011;52070;53.760;9.678;2023-11-21T11:50:41;6.25;;;2.42;;
65373;SDS011;52070;53.760;9.678;2023-11-21T11:53:32;9.88;;;2.05;;
65373;SDS011;52070;53.760;9.678;2023-11-21T11:56:14;3.95;;;2.00;;
65373;SDS011;52070;53.760;9.678;2023-11-21T11:58:48;6.43;;;1.92;;
65373;SDS011;52070;53.760;9.678;2023-11-21T12:01:16;2.83;;;2.20;;
65373;SDS011;52070;53.760;9.678;2023-11-21T12:03:46;4.38;;;1.70;;
65373;SDS011;52070;53.760;9.678;2023-11-21T12:06:57;5.50;;;2.20;;
65373;SDS011;52070;53.760;9.678;2023-11-21T12:09:28;3.47;;;1.95;;
65373;SDS011;52070;53.760;9.678;2023-11-21T12:11:57;3.97;;;1.98;;
65373;SDS011;52070;53.760;9.678;2023-11-21T12:14:24;3.45;;;2.00;;
65373;SDS011;52070;53.760;9.678;2023-11-21T12:16:51;3.05;;;1.70;;
65373;SDS011;52070;53.760;9.678;2023-11-21T12:19:19;1.77;;;1.58;;
65373;SDS011;52070;53.760;9.678;2023-11-21T12:21:48;4.70;;;1.67;;
65373;SDS011;52070;53.760;9.678;2023-11-21T12:24:16;3.13;;;1.77;;
65373;SDS011;52070;53.760;9.678;2023-11-21T12:26:43;4.60;;;1.92;;
65373;SDS011;52070;53.760;9.678;2023-11-21T12:29:10;8.25;;;1.92;;
65373;SDS011;52070;53.760;9.678;2023-11-21T12:31:38;4.10;;;2.08;;
65373;SDS011;52070;53.760;9.678;2023-11-21T12:34:05;10.95;;;2.17;;
65373;SDS011;52070;53.760;9.678;2023-11-21T12:36:33;2.83;;;1.95;;
65373;SDS011;52070;53.760;9.678;2023-11-21T12:39:02;4.75;;;2.17;;
65373;SDS011;52070;53.760;9.678;2023-11-21T12:41:29;4.05;;;2.10;;
65373;SDS011;52070;53.760;9.678;2023-11-21T12:43:57;12.63;;;2.70;;
65373;SDS011;52070;53.760;9.678;2023-11-21T12:46:25;3.00;;;1.80;;
65373;SDS011;52070;53.760;9.678;2023-11-21T12:48:54;2.03;;;1.50;;
65373;SDS011;52070;53.760;9.678;2023-11-21T12:51:23;2.28;;;1.70;;
65373;SDS011;52070;53.760;9.678;2023-11-21T12:53:52;2.70;;;1.90;;
65373;SDS011;52070;53.760;9.678;2023-11-21T12:56:21;3.60;;;1.80;;
65373;SDS011;52070;53.760;9.678;2023-11-21T12:58:49;3.70;;;1.80;;
65373;SDS011;52070;53.760;9.678;2023-11-21T13:01:17;3.72;;;1.92;;
65373;SDS011;52070;53.760;9.678;2023-11-21T13:03:47;3.38;;;1.95;;
65373;SDS011;52070;53.760;9.678;2023-11-21T13:06:16;4.22;;;2.20;;
65373;SDS011;52070;53.760;9.678;2023-11-21T13:08:44;3.08;;;2.00;;
65373;SDS011;52070;53.760;9.678;2023-11-21T13:11:13;3.60;;;2.15;;
65373;SDS011;52070;53.760;9.678;2023-11-21T13:13:40;2.83;;;2.15;;
65373;SDS011;52070;53.760;9.678;2023-11-21T13:16:09;4.05;;;2.00;;
65373;SDS011;52070;53.760;9.678;2023-11-21T13:18:36;2.50;;;2.00;;
65373;SDS011;52070;53.760;9.678;2023-11-21T13:21:04;3.10;;;1.95;;
65373;SDS011;52070;53.760;9.678;2023-11-21T13:23:35;4.82;;;2.03;;
65373;SDS011;52070;53.760;9.678;2023-11-21T13:26:03;4.93;;;1.95;;
65373;SDS011;52070;53.760;9.678;2023-11-21T13:28:32;2.63;;;1.90;;
65373;SDS011;52070;53.760;9.678;2023-11-21T13:30:59;2.33;;;2.00;;
65373;SDS011;52070;53.760;9.678;2023-11-21T13:33:34;3.47;;;1.75;;
65373;SDS011;52070;53.760;9.678;2023-11-21T13:36:03;2.55;;;1.90;;
65373;SDS011;52070;53.760;9.678;2023-11-21T13:38:33;4.40;;;2.10;;
65373;SDS011;52070;53.760;9.678;2023-11-21T13:41:01;3.92;;;2.13;;
65373;SDS011;52070;53.760;9.678;2023-11-21T13:43:34;2.80;;;1.88;;
65373;SDS011;52070;53.760;9.678;2023-11-21T13:46:02;5.22;;;2.03;;
65373;SDS011;52070;53.760;9.678;2023-11-21T13:48:38;5.38;;;2.22;;
65373;SDS011;52070;53.760;9.678;2023-11-21T13:51:08;4.85;;;2.70;;
65373;SDS011;52070;53.760;9.678;2023-11-21T13:53:42;5.95;;;2.75;;
65373;SDS011;52070;53.760;9.678;2023-11-21T13:56:11;2.83;;;2.17;;
65373;SDS011;52070;53.760;9.678;2023-11-21T13:58:43;3.15;;;2.20;;
65373;SDS011;52070;53.760;9.678;2023-11-21T14:01:13;3.88;;;1.88;;
65373;SDS011;52070;53.760;9.678;2023-11-21T14:04:00;3.03;;;2.03;;
65373;SDS011;52070;53.760;9.678;2023-11-21T14:06:37;2.50;;;2.10;;
65373;SDS011;52070;53.760;9.678;2023-11-21T14:09:13;2.45;;;1.80;;
65373;SDS011;52070;53.760;9.678;2023-11-21T14:11:49;4.45;;;2.40;;
65373;SDS011;52070;53.760;9.678;2023-11-21T14:14:19;2.50;;;1.77;;
65373;SDS011;52070;53.760;9.678;2023-11-21T14:16:46;2.97;;;2.00;;
65373;SDS011;52070;53.760;9.678;2023-11-21T14:19:13;3.15;;;1.73;;
65373;SDS011;52070;53.760;9.678;2023-11-21T14:21:43;3.97;;;2.13;;
65373;SDS011;52070;53.760;9.678;2023-11-21T14:24:10;3.17;;;2.13;;
65373;SDS011;52070;53.760;9.678;2023-11-21T14:26:40;2.67;;;1.88;;
65373;SDS011;52070;53.760;9.678;2023-11-21T14:29:08;4.07;;;2.22;;
65373;SDS011;52070;53.760;9.678;2023-11-21T14:31:39;4.55;;;2.08;;
65373;SDS011;52070;53.760;9.678;2023-11-21T14:34:06;3.72;;;2.13;;
65373;SDS011;52070;53.760;9.678;2023-11-21T14:36:33;2.53;;;1.70;;
65373;SDS011;52070;53.760;9.678;2023-11-21T14:39:02;3.30;;;1.95;;
65373;SDS011;52070;53.760;9.678;2023-11-21T14:41:32;4.82;;;2.35;;
65373;SDS011;52070;53.760;9.678;2023-11-21T14:44:01;3.00;;;2.13;;
65373;SDS011;52070;53.760;9.678;2023-11-21T14:46:29;2.60;;;1.90;;
65373;SDS011;52070;53.760;9.678;2023-11-21T14:48:58;5.50;;;2.38;;
65373;SDS011;52070;53.760;9.678;2023-11-21T14:51:27;5.35;;;2.00;;
65373;SDS011;52070;53.760;9.678;2023-11-21T14:53:56;5.68;;;2.13;;
65373;SDS011;52070;53.760;9.678;2023-11-21T14:56:31;4.40;;;2.28;;